Doris — 9HA2632 — position and weather

sailwx.info

Track history (hours):
 
Tides and Currents Weather Stations Pressure Air Temp Water Temp Dewpoint Dewpoint Depression Visibility Wind Speed Wind Dir Waves Ship Positions

Doris

Last reported at 2017-Jun-21 05:48 UTC. Time now 2017-Jun-22 18:37 UTC.
Position N 39°42' E 119°57'.

Length 182 m; draft 9.9 m.

Type: Cargo ship. MMSI: 215080000.

Date/timePositionNaut miles runAvg speedWind from/ knotsBaromVisibWave heightAir tempDewpointWater temp
2017-Jun-21 05:48N 39°42' E 119°57'411.3
2017-Jun-21 05:25N 39°38' E 119°60'512.3
2017-Jun-21 05:00N 39°34' E 120°02'9012.6
2017-Jun-20 21:53N 38°27' E 121°19'2612.8
2017-Jun-20 19:53N 38°13' E 121°46'512.7
2017-Jun-20 19:27N 38°10' E 121°52'613.0
2017-Jun-20 19:00N 38°07' E 121°59'813.0
2017-Jun-20 18:22N 38°04' E 122°08'512.9
2017-Jun-20 18:00N 38°01' E 122°13'612.9
2017-Jun-20 17:30N 37°58' E 122°20'1113.0
2017-Jun-20 16:40N 37°52' E 122°32'212.9
2017-Jun-20 16:30N 37°51' E 122°35'1512.6
2017-Jun-20 15:20N 37°44' E 122°51'  
Track history (hours):
 
Tides and Currents Weather Stations Pressure Air Temp Water Temp Dewpoint Dewpoint Depression Visibility Wind Speed Wind Dir Waves Ship Positions

Doris

Last reported at 2017-Jun-21 05:48 UTC. Time now 2017-Jun-22 18:37 UTC.
Position N 39°42' E 119°57'.

Length 182 m; draft 9.9 m.

Type: Cargo ship. MMSI: 215080000.

Date/timePositionNaut miles runAvg speedWind from/ knotsBaromVisibWave heightAir tempDewpointWater temp
2017-Jun-21 05:48N 39°42' E 119°57'411.3
2017-Jun-21 05:25N 39°38' E 119°60'512.3
2017-Jun-21 05:00N 39°34' E 120°02'9012.6
2017-Jun-20 21:53N 38°27' E 121°19'2612.8
2017-Jun-20 19:53N 38°13' E 121°46'512.7
2017-Jun-20 19:27N 38°10' E 121°52'613.0
2017-Jun-20 19:00N 38°07' E 121°59'813.0
2017-Jun-20 18:22N 38°04' E 122°08'512.9
2017-Jun-20 18:00N 38°01' E 122°13'612.9
2017-Jun-20 17:30N 37°58' E 122°20'1113.0
2017-Jun-20 16:40N 37°52' E 122°32'212.9
2017-Jun-20 16:30N 37°51' E 122°35'1512.6
2017-Jun-20 15:20N 37°44' E 122°51'  

Dump ship's entire track history